sensor_id;sensor_type;location;lat;lon;timestamp;pressure;altitude;pressure_sealevel;temperature;humidity
50368;BME280;36281;34.132;-118.018;2023-05-03T00:00:34;99763.91;;;20.05;40.89
50368;BME280;36281;34.132;-118.018;2023-05-03T00:03:04;99760.94;;;20.06;41.09
50368;BME280;36281;34.132;-118.018;2023-05-03T00:05:34;99768.50;;;20.04;41.13
50368;BME280;36281;34.132;-118.018;2023-05-03T00:08:03;99759.63;;;19.99;41.12
50368;BME280;36281;34.132;-118.018;2023-05-03T00:10:32;99766.09;;;19.93;40.74
50368;BME280;36281;34.132;-118.018;2023-05-03T00:13:01;99759.66;;;19.88;40.92
50368;BME280;36281;34.132;-118.018;2023-05-03T00:15:31;99766.97;;;19.83;40.71
50368;BME280;36281;34.132;-118.018;2023-05-03T00:18:00;99769.97;;;19.71;40.54
50368;BME280;36281;34.132;-118.018;2023-05-03T00:20:30;99770.28;;;19.59;40.67
50368;BME280;36281;34.132;-118.018;2023-05-03T00:23:00;99772.97;;;19.49;40.83
50368;BME280;36281;34.132;-118.018;2023-05-03T00:25:29;99770.56;;;19.37;41.49
50368;BME280;36281;34.132;-118.018;2023-05-03T00:27:58;99765.50;;;19.26;41.83
50368;BME280;36281;34.132;-118.018;2023-05-03T00:30:27;99773.56;;;19.21;42.46
50368;BME280;36281;34.132;-118.018;2023-05-03T00:32:56;99773.56;;;19.05;42.33
50368;BME280;36281;34.132;-118.018;2023-05-03T00:35:26;99765.53;;;18.95;42.69
50368;BME280;36281;34.132;-118.018;2023-05-03T00:37:57;99764.44;;;18.91;43.23
50368;BME280;36281;34.132;-118.018;2023-05-03T00:40:26;99764.97;;;18.88;43.58
50368;BME280;36281;34.132;-118.018;2023-05-03T00:42:55;99764.69;;;18.84;43.32
50368;BME280;36281;34.132;-118.018;2023-05-03T00:45:24;99774.38;;;18.85;43.17
50368;BME280;36281;34.132;-118.018;2023-05-03T00:47:53;99768.47;;;18.83;43.22
50368;BME280;36281;34.132;-118.018;2023-05-03T00:50:23;99766.03;;;18.67;42.56
50368;BME280;36281;34.132;-118.018;2023-05-03T00:52:52;99770.88;;;18.70;42.77
50368;BME280;36281;34.132;-118.018;2023-05-03T00:55:23;99763.34;;;18.62;43.07
50368;BME280;36281;34.132;-118.018;2023-05-03T00:57:53;99772.19;;;18.62;43.00
50368;BME280;36281;34.132;-118.018;2023-05-03T01:00:23;99780.50;;;18.60;42.92
50368;BME280;36281;34.132;-118.018;2023-05-03T01:02:52;99776.19;;;18.54;43.19
50368;BME280;36281;34.132;-118.018;2023-05-03T01:05:22;99776.72;;;18.41;42.79
50368;BME280;36281;34.132;-118.018;2023-05-03T01:08:02;99783.69;;;18.37;43.30
50368;BME280;36281;34.132;-118.018;2023-05-03T01:10:43;99783.66;;;18.27;43.04
50368;BME280;36281;34.132;-118.018;2023-05-03T01:13:21;99789.78;;;18.22;43.21
50368;BME280;36281;34.132;-118.018;2023-05-03T01:15:58;99782.53;;;18.18;43.98
50368;BME280;36281;34.132;-118.018;2023-05-03T01:18:32;99787.09;;;18.12;44.00
50368;BME280;36281;34.132;-118.018;2023-05-03T01:21:02;99780.91;;;18.06;44.08
50368;BME280;36281;34.132;-118.018;2023-05-03T01:23:39;99789.72;;;18.02;44.39
50368;BME280;36281;34.132;-118.018;2023-05-03T01:26:27;99789.41;;;17.93;43.95
50368;BME280;36281;34.132;-118.018;2023-05-03T01:28:56;99793.69;;;17.89;44.19
50368;BME280;36281;34.132;-118.018;2023-05-03T01:31:29;99778.16;;;17.86;44.41
50368;BME280;36281;34.132;-118.018;2023-05-03T01:34:17;99786.69;;;17.83;44.45
50368;BME280;36281;34.132;-118.018;2023-05-03T01:36:53;99786.69;;;17.78;44.79
50368;BME280;36281;34.132;-118.018;2023-05-03T01:39:30;99782.59;;;17.70;44.51
50368;BME280;36281;34.132;-118.018;2023-05-03T01:42:03;99772.09;;;17.58;45.36
50368;BME280;36281;34.132;-118.018;2023-05-03T01:44:33;99787.66;;;17.67;45.26
50368;BME280;36281;34.132;-118.018;2023-05-03T01:47:02;99790.31;;;17.62;45.10
50368;BME280;36281;34.132;-118.018;2023-05-03T01:49:31;99796.44;;;17.57;45.17
50368;BME280;36281;34.132;-118.018;2023-05-03T01:52:02;99787.06;;;17.54;45.58
50368;BME280;36281;34.132;-118.018;2023-05-03T01:54:31;99790.28;;;17.51;45.51
50368;BME280;36281;34.132;-118.018;2023-05-03T01:57:01;99791.84;;;17.47;45.93
50368;BME280;36281;34.132;-118.018;2023-05-03T01:59:31;99784.59;;;17.43;45.83
50368;BME280;36281;34.132;-118.018;2023-05-03T02:02:00;99787.22;;;17.38;47.02
50368;BME280;36281;34.132;-118.018;2023-05-03T02:04:29;99789.06;;;17.32;47.25
50368;BME280;36281;34.132;-118.018;2023-05-03T02:06:58;99795.72;;;17.29;47.54
50368;BME280;36281;34.132;-118.018;2023-05-03T02:09:27;99787.94;;;17.23;48.00
50368;BME280;36281;34.132;-118.018;2023-05-03T02:11:56;99797.00;;;17.17;48.05
50368;BME280;36281;34.132;-118.018;2023-05-03T02:14:27;99792.38;;;17.07;48.12
50368;BME280;36281;34.132;-118.018;2023-05-03T02:16:56;99800.59;;;17.00;48.36
50368;BME280;36281;34.132;-118.018;2023-05-03T02:19:25;99801.09;;;16.92;48.49
50368;BME280;36281;34.132;-118.018;2023-05-03T02:21:55;99806.59;;;16.80;48.70
50368;BME280;36281;34.132;-118.018;2023-05-03T02:24:24;99808.94;;;16.72;48.50
50368;BME280;36281;34.132;-118.018;2023-05-03T02:26:53;99810.94;;;16.65;48.47
50368;BME280;36281;34.132;-118.018;2023-05-03T02:29:22;99821.31;;;16.56;48.34
50368;BME280;36281;34.132;-118.018;2023-05-03T02:31:53;99820.94;;;16.47;48.60
50368;BME280;36281;34.132;-118.018;2023-05-03T02:34:22;99822.44;;;16.38;48.46
50368;BME280;36281;34.132;-118.018;2023-05-03T02:36:51;99823.16;;;16.28;48.63
50368;BME280;36281;34.132;-118.018;2023-05-03T02:39:20;99820.66;;;16.22;49.00
50368;BME280;36281;34.132;-118.018;2023-05-03T02:41:49;99827.31;;;16.19;49.52
50368;BME280;36281;34.132;-118.018;2023-05-03T02:44:18;99828.06;;;16.15;49.53
50368;BME280;36281;34.132;-118.018;2023-05-03T02:46:47;99836.25;;;16.08;49.93
50368;BME280;36281;34.132;-118.018;2023-05-03T02:49:18;99833.00;;;16.06;50.33
50368;BME280;36281;34.132;-118.018;2023-05-03T02:51:47;99834.59;;;16.02;50.53
50368;BME280;36281;34.132;-118.018;2023-05-03T02:54:16;99843.09;;;15.99;51.22
50368;BME280;36281;34.132;-118.018;2023-05-03T02:56:46;99849.16;;;15.94;51.22
50368;BME280;36281;34.132;-118.018;2023-05-03T02:59:15;99850.72;;;15.90;51.66
50368;BME280;36281;34.132;-118.018;2023-05-03T03:01:45;99857.03;;;15.84;51.67
50368;BME280;36281;34.132;-118.018;2023-05-03T03:04:15;99859.09;;;15.77;51.76
50368;BME280;36281;34.132;-118.018;2023-05-03T03:06:46;99867.03;;;15.72;51.91
50368;BME280;36281;34.132;-118.018;2023-05-03T03:09:15;99866.97;;;15.67;51.81
50368;BME280;36281;34.132;-118.018;2023-05-03T03:11:45;99867.09;;;15.60;51.95
50368;BME280;36281;34.132;-118.018;2023-05-03T03:14:14;99872.59;;;15.54;52.32
50368;BME280;36281;34.132;-118.018;2023-05-03T03:16:45;99879.47;;;15.49;52.78
50368;BME280;36281;34.132;-118.018;2023-05-03T03:19:14;99879.66;;;15.43;53.16
50368;BME280;36281;34.132;-118.018;2023-05-03T03:21:45;99876.91;;;15.38;53.58
50368;BME280;36281;34.132;-118.018;2023-05-03T03:24:14;99881.91;;;15.34;53.78
50368;BME280;36281;34.132;-118.018;2023-05-03T03:26:43;99878.34;;;15.29;54.09
50368;BME280;36281;34.132;-118.018;2023-05-03T03:29:12;99881.25;;;15.27;54.41
50368;BME280;36281;34.132;-118.018;2023-05-03T03:31:41;99887.06;;;15.24;54.68
50368;BME280;36281;34.132;-118.018;2023-05-03T03:34:11;99885.47;;;15.23;54.68
50368;BME280;36281;34.132;-118.018;2023-05-03T03:36:41;99890.13;;;15.16;54.85
50368;BME280;36281;34.132;-118.018;2023-05-03T03:39:11;99895.16;;;15.12;54.90
50368;BME280;36281;34.132;-118.018;2023-05-03T03:41:40;99886.25;;;15.07;54.98
50368;BME280;36281;34.132;-118.018;2023-05-03T03:44:09;99888.00;;;15.01;55.43
50368;BME280;36281;34.132;-118.018;2023-05-03T03:46:38;99896.16;;;14.94;55.34
50368;BME280;36281;34.132;-118.018;2023-05-03T03:49:08;99892.59;;;14.89;55.71
50368;BME280;36281;34.132;-118.018;2023-05-03T03:51:37;99901.56;;;14.83;55.61
50368;BME280;36281;34.132;-118.018;2023-05-03T03:54:07;99900.06;;;14.75;55.68
50368;BME280;36281;34.132;-118.018;2023-05-03T03:56:40;99901.84;;;14.69;56.56
50368;BME280;36281;34.132;-118.018;2023-05-03T03:59:09;99906.00;;;14.65;56.61
50368;BME280;36281;34.132;-118.018;2023-05-03T04:01:38;99908.34;;;14.62;56.56
50368;BME280;36281;34.132;-118.018;2023-05-03T04:04:07;99897.97;;;14.48;56.59
50368;BME280;36281;34.132;-118.018;2023-05-03T04:06:36;99911.63;;;14.52;56.72
50368;BME280;36281;34.132;-118.018;2023-05-03T04:09:05;99908.63;;;14.48;56.83
50368;BME280;36281;34.132;-118.018;2023-05-03T04:11:39;99914.63;;;14.44;57.14
50368;BME280;36281;34.132;-118.018;2023-05-03T04:14:08;99916.94;;;14.40;56.85
50368;BME280;36281;34.132;-118.018;2023-05-03T04:16:37;99912.91;;;14.38;57.45
50368;BME280;36281;34.132;-118.018;2023-05-03T04:19:06;99916.03;;;14.35;57.31
50368;BME280;36281;34.132;-118.018;2023-05-03T04:21:35;99922.66;;;14.32;58.02
50368;BME280;36281;34.132;-118.018;2023-05-03T04:24:06;99916.97;;;14.29;58.13
50368;BME280;36281;34.132;-118.018;2023-05-03T04:26:38;99920.34;;;14.24;58.28
50368;BME280;36281;34.132;-118.018;2023-05-03T04:29:07;99925.31;;;14.20;58.76
50368;BME280;36281;34.132;-118.018;2023-05-03T04:31:38;99927.63;;;14.17;58.75
50368;BME280;36281;34.132;-118.018;2023-05-03T04:34:07;99920.59;;;14.11;58.85
50368;BME280;36281;34.132;-118.018;2023-05-03T04:36:38;99918.41;;;14.08;59.53
50368;BME280;36281;34.132;-118.018;2023-05-03T04:39:07;99923.38;;;14.04;59.37
50368;BME280;36281;34.132;-118.018;2023-05-03T04:41:40;99923.25;;;13.99;59.32
50368;BME280;36281;34.132;-118.018;2023-05-03T04:44:09;99922.91;;;13.95;59.74
50368;BME280;36281;34.132;-118.018;2023-05-03T04:46:39;99919.91;;;13.92;60.27
50368;BME280;36281;34.132;-118.018;2023-05-03T04:49:08;99923.28;;;13.87;60.47
50368;BME280;36281;34.132;-118.018;2023-05-03T04:51:40;99926.63;;;13.83;60.50
50368;BME280;36281;34.132;-118.018;2023-05-03T04:54:09;99924.88;;;13.77;60.71
50368;BME280;36281;34.132;-118.018;2023-05-03T04:56:40;99929.88;;;13.73;61.00
50368;BME280;36281;34.132;-118.018;2023-05-03T04:59:09;99923.38;;;13.69;61.26
50368;BME280;36281;34.132;-118.018;2023-05-03T05:01:38;99923.13;;;13.59;61.67
50368;BME280;36281;34.132;-118.018;2023-05-03T05:04:07;99927.19;;;13.61;61.86
50368;BME280;36281;34.132;-118.018;2023-05-03T05:06:36;99915.72;;;13.49;62.10
50368;BME280;36281;34.132;-118.018;2023-05-03T05:09:06;99910.97;;;13.39;62.39
50368;BME280;36281;34.132;-118.018;2023-05-03T05:11:35;99930.75;;;13.43;62.58
50368;BME280;36281;34.132;-118.018;2023-05-03T05:14:06;99927.84;;;13.33;62.69
50368;BME280;36281;34.132;-118.018;2023-05-03T05:16:35;99933.03;;;13.28;63.32
50368;BME280;36281;34.132;-118.018;2023-05-03T05:19:04;99927.78;;;13.22;63.82
50368;BME280;36281;34.132;-118.018;2023-05-03T05:21:33;99938.06;;;13.18;63.96
50368;BME280;36281;34.132;-118.018;2023-05-03T05:24:02;99935.63;;;13.16;64.32
50368;BME280;36281;34.132;-118.018;2023-05-03T05:26:32;99934.38;;;13.19;65.13
50368;BME280;36281;34.132;-118.018;2023-05-03T05:29:01;99930.75;;;13.13;65.30
50368;BME280;36281;34.132;-118.018;2023-05-03T05:31:31;99932.63;;;13.13;65.53
50368;BME280;36281;34.132;-118.018;2023-05-03T05:34:03;99934.44;;;13.12;65.78
50368;BME280;36281;34.132;-118.018;2023-05-03T05:36:32;99934.53;;;13.06;65.94
50368;BME280;36281;34.132;-118.018;2023-05-03T05:39:01;99938.69;;;13.02;66.41
50368;BME280;36281;34.132;-118.018;2023-05-03T05:41:31;99941.44;;;12.95;66.41
50368;BME280;36281;34.132;-118.018;2023-05-03T05:44:00;99942.34;;;12.89;66.86
50368;BME280;36281;34.132;-118.018;2023-05-03T05:46:29;99936.66;;;12.85;67.59
50368;BME280;36281;34.132;-118.018;2023-05-03T05:48:59;99939.31;;;12.85;67.65
50368;BME280;36281;34.132;-118.018;2023-05-03T05:51:28;99942.66;;;12.81;68.13
50368;BME280;36281;34.132;-118.018;2023-05-03T05:53:59;99936.97;;;12.77;68.39
50368;BME280;36281;34.132;-118.018;2023-05-03T05:56:28;99939.72;;;12.71;69.06
50368;BME280;36281;34.132;-118.018;2023-05-03T05:58:57;99945.31;;;12.62;69.18
50368;BME280;36281;34.132;-118.018;2023-05-03T06:01:28;99955.38;;;12.60;69.45
50368;BME280;36281;34.132;-118.018;2023-05-03T06:04:00;99953.38;;;12.56;70.17
50368;BME280;36281;34.132;-118.018;2023-05-03T06:06:29;99956.03;;;12.56;70.39
50368;BME280;36281;34.132;-118.018;2023-05-03T06:08:58;99951.75;;;12.55;70.73
50368;BME280;36281;34.132;-118.018;2023-05-03T06:11:43;99949.53;;;12.52;70.49
50368;BME280;36281;34.132;-118.018;2023-05-03T06:14:12;99951.63;;;12.50;70.73
50368;BME280;36281;34.132;-118.018;2023-05-03T06:16:41;99950.19;;;12.47;70.87
50368;BME280;36281;34.132;-118.018;2023-05-03T06:19:12;99943.78;;;12.36;70.79
50368;BME280;36281;34.132;-118.018;2023-05-03T06:21:41;99944.44;;;12.32;70.95
50368;BME280;36281;34.132;-118.018;2023-05-03T06:24:10;99950.78;;;12.31;71.68
50368;BME280;36281;34.132;-118.018;2023-05-03T06:26:39;99946.91;;;12.33;71.57
50368;BME280;36281;34.132;-118.018;2023-05-03T06:29:08;99955.06;;;12.32;71.85
50368;BME280;36281;34.132;-118.018;2023-05-03T06:31:38;99946.28;;;12.31;71.86
50368;BME280;36281;34.132;-118.018;2023-05-03T06:34:09;99944.91;;;12.29;72.10
50368;BME280;36281;34.132;-118.018;2023-05-03T06:36:39;99945.56;;;12.24;72.35
50368;BME280;36281;34.132;-118.018;2023-05-03T06:39:08;99943.56;;;12.20;72.21
50368;BME280;36281;34.132;-118.018;2023-05-03T06:41:39;99943.75;;;12.18;72.00
50368;BME280;36281;34.132;-118.018;2023-05-03T06:44:08;99949.53;;;12.15;72.49
50368;BME280;36281;34.132;-118.018;2023-05-03T06:46:37;99944.50;;;12.07;72.44
50368;BME280;36281;34.132;-118.018;2023-05-03T06:49:06;99947.47;;;11.99;72.70
50368;BME280;36281;34.132;-118.018;2023-05-03T06:51:36;99944.66;;;11.94;72.64
50368;BME280;36281;34.132;-118.018;2023-05-03T06:54:06;99948.97;;;11.88;72.80
50368;BME280;36281;34.132;-118.018;2023-05-03T06:56:37;99944.53;;;11.82;73.70
50368;BME280;36281;34.132;-118.018;2023-05-03T06:59:06;99948.19;;;11.81;74.11
50368;BME280;36281;34.132;-118.018;2023-05-03T07:01:38;99948.19;;;11.81;73.68
50368;BME280;36281;34.132;-118.018;2023-05-03T07:04:08;99948.78;;;11.83;73.87
50368;BME280;36281;34.132;-118.018;2023-05-03T07:06:37;99946.16;;;11.83;73.86
50368;BME280;36281;34.132;-118.018;2023-05-03T07:09:24;99945.34;;;11.82;74.00
50368;BME280;36281;34.132;-118.018;2023-05-03T07:11:56;99942.88;;;11.81;74.16
50368;BME280;36281;34.132;-118.018;2023-05-03T07:14:25;99941.47;;;11.78;74.17
50368;BME280;36281;34.132;-118.018;2023-05-03T07:16:54;99940.06;;;11.76;74.22
50368;BME280;36281;34.132;-118.018;2023-05-03T07:19:23;99945.59;;;11.74;74.21
50368;BME280;36281;34.132;-118.018;2023-05-03T07:21:52;99942.34;;;11.72;74.42
50368;BME280;36281;34.132;-118.018;2023-05-03T07:24:23;99930.34;;;11.70;74.57
50368;BME280;36281;34.132;-118.018;2023-05-03T07:26:53;99939.31;;;11.69;74.03
50368;BME280;36281;34.132;-118.018;2023-05-03T07:29:22;99934.22;;;11.67;73.77
50368;BME280;36281;34.132;-118.018;2023-05-03T07:31:51;99929.13;;;11.65;73.78
50368;BME280;36281;34.132;-118.018;2023-05-03T07:34:20;99934.28;;;11.60;73.57
50368;BME280;36281;34.132;-118.018;2023-05-03T07:36:49;99931.00;;;11.58;73.82
50368;BME280;36281;34.132;-118.018;2023-05-03T07:39:19;99936.13;;;11.60;74.07
50368;BME280;36281;34.132;-118.018;2023-05-03T07:41:50;99935.50;;;11.58;74.18
50368;BME280;36281;34.132;-118.018;2023-05-03T07:44:19;99926.38;;;11.54;74.33
50368;BME280;36281;34.132;-118.018;2023-05-03T07:46:49;99923.34;;;11.50;74.23
50368;BME280;36281;34.132;-118.018;2023-05-03T07:49:18;99932.53;;;11.48;74.75
50368;BME280;36281;34.132;-118.018;2023-05-03T07:51:47;99926.00;;;11.50;74.95
50368;BME280;36281;34.132;-118.018;2023-05-03T07:54:16;99924.16;;;11.51;75.02
50368;BME280;36281;34.132;-118.018;2023-05-03T07:56:45;99909.28;;;11.50;74.88
50368;BME280;36281;34.132;-118.018;2023-05-03T07:59:15;99916.59;;;11.54;74.78
50368;BME280;36281;34.132;-118.018;2023-05-03T08:01:45;99908.81;;;11.53;74.97
50368;BME280;36281;34.132;-118.018;2023-05-03T08:04:14;99909.69;;;11.47;74.84
50368;BME280;36281;34.132;-118.018;2023-05-03T08:06:43;99912.97;;;11.49;74.88
50368;BME280;36281;34.132;-118.018;2023-05-03T08:09:12;99907.03;;;11.47;74.96
50368;BME280;36281;34.132;-118.018;2023-05-03T08:11:43;99900.13;;;11.46;75.12
50368;BME280;36281;34.132;-118.018;2023-05-03T08:14:12;99908.06;;;11.46;75.38
50368;BME280;36281;34.132;-118.018;2023-05-03T08:16:42;99908.06;;;11.46;75.29
50368;BME280;36281;34.132;-118.018;2023-05-03T08:19:11;99897.06;;;11.42;75.21
50368;BME280;36281;34.132;-118.018;2023-05-03T08:21:40;99898.34;;;11.39;75.44
50368;BME280;36281;34.132;-118.018;2023-05-03T08:24:10;99899.16;;;11.40;75.51
50368;BME280;36281;34.132;-118.018;2023-05-03T08:26:42;99890.81;;;11.36;75.37
50368;BME280;36281;34.132;-118.018;2023-05-03T08:29:12;99889.19;;;11.35;75.48
50368;BME280;36281;34.132;-118.018;2023-05-03T08:31:43;99884.31;;;11.32;75.67
50368;BME280;36281;34.132;-118.018;2023-05-03T08:34:12;99881.50;;;11.27;75.56
50368;BME280;36281;34.132;-118.018;2023-05-03T08:36:41;99878.25;;;11.25;75.77
50368;BME280;36281;34.132;-118.018;2023-05-03T08:39:10;99883.34;;;11.27;75.76
50368;BME280;36281;34.132;-118.018;2023-05-03T08:41:40;99878.25;;;11.25;76.07
50368;BME280;36281;34.132;-118.018;2023-05-03T08:44:10;99881.94;;;11.24;76.48
50368;BME280;36281;34.132;-118.018;2023-05-03T08:46:44;99865.91;;;11.12;76.66
50368;BME280;36281;34.132;-118.018;2023-05-03T08:49:14;99876.81;;;11.23;77.21
50368;BME280;36281;34.132;-118.018;2023-05-03T08:51:44;99873.19;;;11.17;77.56
50368;BME280;36281;34.132;-118.018;2023-05-03T08:54:17;99861.56;;;11.18;77.71
50368;BME280;36281;34.132;-118.018;2023-05-03T08:56:48;99855.84;;;11.21;77.52
50368;BME280;36281;34.132;-118.018;2023-05-03T08:59:17;99856.88;;;11.20;77.67
50368;BME280;36281;34.132;-118.018;2023-05-03T09:01:47;99856.44;;;11.23;77.58
50368;BME280;36281;34.132;-118.018;2023-05-03T09:04:19;99859.31;;;11.22;77.57
50368;BME280;36281;34.132;-118.018;2023-05-03T09:06:48;99853.63;;;11.18;77.37
50368;BME280;36281;34.132;-118.018;2023-05-03T09:09:30;99847.16;;;11.14;77.33
50368;BME280;36281;34.132;-118.018;2023-05-03T09:11:59;99846.31;;;11.13;77.19
50368;BME280;36281;34.132;-118.018;2023-05-03T09:14:29;99850.00;;;11.12;77.15
50368;BME280;36281;34.132;-118.018;2023-05-03T09:17:13;99845.94;;;11.10;77.13
50368;BME280;36281;34.132;-118.018;2023-05-03T09:19:50;99840.03;;;11.08;77.35
50368;BME280;36281;34.132;-118.018;2023-05-03T09:22:21;99835.75;;;11.07;77.24
50368;BME280;36281;34.132;-118.018;2023-05-03T09:24:53;99834.56;;;11.03;77.26
50368;BME280;36281;34.132;-118.018;2023-05-03T09:27:23;99820.97;;;10.93;77.18
50368;BME280;36281;34.132;-118.018;2023-05-03T09:29:53;99829.09;;;10.98;77.47
50368;BME280;36281;34.132;-118.018;2023-05-03T09:32:24;99819.94;;;10.94;77.28
50368;BME280;36281;34.132;-118.018;2023-05-03T09:35:08;99821.22;;;10.91;77.60
50368;BME280;36281;34.132;-118.018;2023-05-03T09:37:37;99820.22;;;10.85;77.54
50368;BME280;36281;34.132;-118.018;2023-05-03T09:40:07;99794.06;;;10.64;77.48
50368;BME280;36281;34.132;-118.018;2023-05-03T09:42:39;99824.56;;;10.73;78.11
50368;BME280;36281;34.132;-118.018;2023-05-03T09:45:22;99822.16;;;10.72;78.50
50368;BME280;36281;34.132;-118.018;2023-05-03T09:47:53;99821.34;;;10.71;78.33
50368;BME280;36281;34.132;-118.018;2023-05-03T09:50:24;99814.63;;;10.69;78.43
50368;BME280;36281;34.132;-118.018;2023-05-03T09:52:54;99805.09;;;10.61;78.81
50368;BME280;36281;34.132;-118.018;2023-05-03T09:55:25;99799.25;;;10.52;79.14
50368;BME280;36281;34.132;-118.018;2023-05-03T09:57:54;99799.19;;;10.59;79.05
50368;BME280;36281;34.132;-118.018;2023-05-03T10:00:25;99799.19;;;10.59;78.85
50368;BME280;36281;34.132;-118.018;2023-05-03T10:02:56;99793.31;;;10.57;79.21
50368;BME280;36281;34.132;-118.018;2023-05-03T10:05:30;99792.72;;;10.55;79.45
50368;BME280;36281;34.132;-118.018;2023-05-03T10:08:00;99792.31;;;10.51;79.68
50368;BME280;36281;34.132;-118.018;2023-05-03T10:10:32;99792.56;;;10.50;79.94
50368;BME280;36281;34.132;-118.018;2023-05-03T10:13:02;99796.19;;;10.49;80.10
50368;BME280;36281;34.132;-118.018;2023-05-03T10:15:32;99777.75;;;10.35;79.95
50368;BME280;36281;34.132;-118.018;2023-05-03T10:18:05;99793.38;;;10.44;80.23
50368;BME280;36281;34.132;-118.018;2023-05-03T10:20:39;99797.28;;;10.41;80.25
50368;BME280;36281;34.132;-118.018;2023-05-03T10:23:13;99795.84;;;10.39;79.97
50368;BME280;36281;34.132;-118.018;2023-05-03T10:26:12;99793.41;;;10.37;79.81
50368;BME280;36281;34.132;-118.018;2023-05-03T10:28:42;99787.38;;;10.30;79.72
50368;BME280;36281;34.132;-118.018;2023-05-03T10:31:45;99792.44;;;10.31;79.64
50368;BME280;36281;34.132;-118.018;2023-05-03T10:34:23;99799.16;;;10.27;79.58
50368;BME280;36281;34.132;-118.018;2023-05-03T10:36:52;99784.16;;;10.15;79.43
50368;BME280;36281;34.132;-118.018;2023-05-03T10:39:21;99793.91;;;10.14;79.02
50368;BME280;36281;34.132;-118.018;2023-05-03T10:41:58;99796.97;;;10.11;79.43
50368;BME280;36281;34.132;-118.018;2023-05-03T10:44:26;99799.44;;;10.06;79.32
50368;BME280;36281;34.132;-118.018;2023-05-03T10:46:56;99798.03;;;10.03;79.81
50368;BME280;36281;34.132;-118.018;2023-05-03T10:49:38;99798.41;;;10.07;79.85
50368;BME280;36281;34.132;-118.018;2023-05-03T10:52:47;99797.81;;;10.05;79.83
50368;BME280;36281;34.132;-118.018;2023-05-03T10:55:18;99801.69;;;10.02;79.82
50368;BME280;36281;34.132;-118.018;2023-05-03T10:57:48;99801.28;;;9.99;79.59
50368;BME280;36281;34.132;-118.018;2023-05-03T11:00:26;99802.53;;;9.96;80.18
50368;BME280;36281;34.132;-118.018;2023-05-03T11:03:28;99796.00;;;9.99;80.54
50368;BME280;36281;34.132;-118.018;2023-05-03T11:06:01;99793.34;;;9.99;80.79
50368;BME280;36281;34.132;-118.018;2023-05-03T11:08:30;99790.72;;;9.99;80.83
50368;BME280;36281;34.132;-118.018;2023-05-03T11:11:04;99789.72;;;10.00;80.94
50368;BME280;36281;34.132;-118.018;2023-05-03T11:13:36;99799.06;;;9.96;81.28
50368;BME280;36281;34.132;-118.018;2023-05-03T11:16:06;99803.94;;;9.99;81.10
50368;BME280;36281;34.132;-118.018;2023-05-03T11:18:35;99797.66;;;10.00;81.30
50368;BME280;36281;34.132;-118.018;2023-05-03T11:21:06;99804.97;;;9.98;81.78
50368;BME280;36281;34.132;-118.018;2023-05-03T11:23:37;99804.97;;;9.98;82.15
50368;BME280;36281;34.132;-118.018;2023-05-03T11:26:07;99800.91;;;9.95;82.27
50368;BME280;36281;34.132;-118.018;2023-05-03T11:28:40;99803.56;;;9.95;82.43
50368;BME280;36281;34.132;-118.018;2023-05-03T11:31:09;99801.28;;;9.99;82.80
50368;BME280;36281;34.132;-118.018;2023-05-03T11:33:39;99804.13;;;10.04;82.58
50368;BME280;36281;34.132;-118.018;2023-05-03T11:36:10;99796.59;;;10.07;82.57
50368;BME280;36281;34.132;-118.018;2023-05-03T11:38:41;99796.16;;;10.10;82.54
50368;BME280;36281;34.132;-118.018;2023-05-03T11:41:12;99783.56;;;10.06;82.30
50368;BME280;36281;34.132;-118.018;2023-05-03T11:43:42;99794.75;;;10.15;82.81
50368;BME280;36281;34.132;-118.018;2023-05-03T11:46:12;99792.69;;;10.17;82.89
50368;BME280;36281;34.132;-118.018;2023-05-03T11:48:43;99796.31;;;10.22;83.15
50368;BME280;36281;34.132;-118.018;2023-05-03T11:51:16;99803.66;;;10.27;83.12
50368;BME280;36281;34.132;-118.018;2023-05-03T11:53:50;99809.34;;;10.30;82.92
50368;BME280;36281;34.132;-118.018;2023-05-03T11:56:19;99798.75;;;10.30;82.84
50368;BME280;36281;34.132;-118.018;2023-05-03T11:58:51;99801.59;;;10.29;82.94
50368;BME280;36281;34.132;-118.018;2023-05-03T12:01:22;99806.69;;;10.30;83.08
50368;BME280;36281;34.132;-118.018;2023-05-03T12:03:56;99800.78;;;10.35;83.25
50368;BME280;36281;34.132;-118.018;2023-05-03T12:06:28;99786.13;;;10.32;83.43
50368;BME280;36281;34.132;-118.018;2023-05-03T12:09:00;99793.00;;;10.40;83.25
50368;BME280;36281;34.132;-118.018;2023-05-03T12:11:39;99780.19;;;10.37;83.19
50368;BME280;36281;34.132;-118.018;2023-05-03T12:14:11;99788.09;;;10.44;83.05
50368;BME280;36281;34.132;-118.018;2023-05-03T12:16:47;99792.97;;;10.47;83.13
50368;BME280;36281;34.132;-118.018;2023-05-03T12:19:24;99780.59;;;10.41;83.04
50368;BME280;36281;34.132;-118.018;2023-05-03T12:21:56;99801.50;;;10.49;82.62
50368;BME280;36281;34.132;-118.018;2023-05-03T12:24:45;99793.38;;;10.44;82.57
50368;BME280;36281;34.132;-118.018;2023-05-03T12:27:16;99782.03;;;10.37;82.39
50368;BME280;36281;34.132;-118.018;2023-05-03T12:29:46;99790.56;;;10.39;82.44
50368;BME280;36281;34.132;-118.018;2023-05-03T12:32:18;99787.31;;;10.37;82.19
50368;BME280;36281;34.132;-118.018;2023-05-03T12:34:49;99789.97;;;10.37;81.90
50368;BME280;36281;34.132;-118.018;2023-05-03T12:37:20;99795.09;;;10.31;81.63
50368;BME280;36281;34.132;-118.018;2023-05-03T12:39:54;99796.53;;;10.27;81.50
50368;BME280;36281;34.132;-118.018;2023-05-03T12:42:44;99795.50;;;10.22;81.57
50368;BME280;36281;34.132;-118.018;2023-05-03T12:45:13;99794.28;;;10.18;81.54
50368;BME280;36281;34.132;-118.018;2023-05-03T12:47:43;99800.66;;;10.10;81.50
50368;BME280;36281;34.132;-118.018;2023-05-03T12:50:16;99804.91;;;10.11;81.62